Decoded Metar for UMKK (KALININGRAD in RUSSIA) (IATA:KGD) | Meteo·Mobile Aviation Weather
aviador You're here:

UMKK Decoded Metar

KALININGRAD in RUSSIA
Report Time2018-10-19 08:30:00
UTC Time2018-10-19 08:46:24
Flight Rules vfr VFR
Wind060° at 6 kt
W.Decomp.*RWY 06: 6.0 kt HW 0.4 kt LCW
W.Rank060° ranks 33
Current wind is below 060° avg. (6.9)
Visibility9999 m
Phenomena:N/A
Clouds:Scattered 004 Hf
Expected CloudBase > 800 ft AGL from Temp-Dew spread
CeilingNone
Temp11°C (ISA -4)
Dew Point09°C (88% RH)
AAT8.6°C
QNH1023 hPa
Density Alt-574 ft
Elevation69 ft
Report Wrong Elevation
Raw Report
UMKK 190830Z 06003MPS 030V090 9999 SCT004 11/09 Q1023 R06/CLRD60
NOSIG RMK QBB120 OBST OBSC QFE766/1021=

Extra information for UMKK:More info

Metar Taf Metar & Taf Last 4 Metars F.Rules Stats Wind Profile Meteogram Temp Stats Airport Information Weather charts Add Link Nearby VenuesMetar ALERT Operation Metar Decoded Social comments